»·PEaware :: N347GL KSMX-0L7

N347GL :: KSMX-0L7

FLIGHT INFORMATION

Flight Status: Arrived
Operator: Privately registered:
United States
More flights under this callsign
Pilot: Greg L. (17564)
Aircraft: PILATUS PC-12 EAGLE
(PC12)
More flights by this aircraft type
Origin: KSMX Santa Maria Pub/Capt Hancock
United States
Destination: 0L7 Jean
United States
More flights between these airports :: More routes between these airports
Route: AFOXY V27 GVO V12 HEC V21 WHIGG
File this flight plan on PilotEdge
Remarks:
Altitude:
(Current/Filed)
15,500ft
Speed:
(Current/Filed)
240kts
Departed: 01-Jan-18 07:01 PM
Arrived: 01-Jan-18 08:10 PM
Distance/Time
Traveled:
256nm/1:09
Distance/Time
To Go:
Arrived

Flight Plot

Page will automatically refresh every two minutes.

Flight plan parsing failed; only flown route is shown


Map Options




Map Legend


Flown Route
Filed Route
Departure Airport
Arrival Airport
Navaid (VOR, NDB)
Fix

Horizontal Profiles

Position Reports

Time Latitude Longitude Heading Altitude Ground
Speed
01-Jan-18 18:48 34.897780 -120.447261 45 229ft 0kts
01-Jan-18 18:49 34.897780 -120.447261 45 229ft 0kts
01-Jan-18 18:50 34.897780 -120.447261 45 229ft 0kts
01-Jan-18 18:51 34.897780 -120.447261 45 229ft 0kts
01-Jan-18 18:52 34.897780 -120.447261 45 229ft 0kts
01-Jan-18 18:53 34.897780 -120.447261 45 229ft 0kts
01-Jan-18 18:54 34.897780 -120.447261 45 229ft 0kts
01-Jan-18 18:55 34.897780 -120.447261 45 229ft 0kts
01-Jan-18 18:56 34.897780 -120.447261 44 229ft 0kts
01-Jan-18 18:57 34.897780 -120.447261 44 229ft 0kts
01-Jan-18 18:58 34.897780 -120.447261 44 229ft 0kts
01-Jan-18 18:59 34.897780 -120.447261 44 229ft 0kts
01-Jan-18 19:00 34.897780 -120.447261 44 229ft 0kts
01-Jan-18 19:01 34.897780 -120.447261 44 229ft 0kts
01-Jan-18 19:02 34.897780 -120.447261 44 229ft 0kts
01-Jan-18 19:03 34.897780 -120.447261 44 229ft 0kts
01-Jan-18 19:04 34.897440 -120.447089 197 229ft 4kts
01-Jan-18 19:05 34.895146 -120.446691 136 229ft 11kts
01-Jan-18 19:06 34.893886 -120.445673 182 229ft 0kts
01-Jan-18 19:07 34.894591 -120.448029 313 229ft 62kts
01-Jan-18 19:08 34.914003 -120.463170 52 1724ft 122kts
01-Jan-18 19:09 34.909325 -120.402315 105 2510ft 202kts
01-Jan-18 19:10 34.893313 -120.337130 121 4299ft 201kts
01-Jan-18 19:11 34.844449 -120.304620 155 6119ft 202kts
01-Jan-18 19:12 34.793464 -120.274854 153 7916ft 204kts
01-Jan-18 19:13 34.742449 -120.243805 153 9713ft 205kts
01-Jan-18 19:14 34.691277 -120.212475 153 11518ft 204kts
01-Jan-18 19:15 34.640774 -120.181556 153 13310ft 202kts
01-Jan-18 19:16 34.599806 -120.154069 142 14806ft 202kts
01-Jan-18 19:17 34.542897 -120.101270 140 15504ft 246kts
01-Jan-18 19:18 34.527394 -120.034151 93 15500ft 266kts
01-Jan-18 19:19 34.520467 -119.928222 95 15486ft 272kts
01-Jan-18 19:20 34.514107 -119.836626 95 15475ft 273kts
01-Jan-18 19:21 34.509967 -119.760070 87 15475ft 274kts
01-Jan-18 19:22 34.518733 -119.652309 85 15480ft 275kts
01-Jan-18 19:23 34.524717 -119.575443 85 15485ft 275kts
01-Jan-18 19:24 34.531776 -119.483088 85 15491ft 275kts
01-Jan-18 19:25 34.538807 -119.390244 85 15498ft 276kts
01-Jan-18 19:26 34.545752 -119.297473 85 15506ft 277kts
01-Jan-18 19:27 34.552689 -119.204133 85 15515ft 277kts
01-Jan-18 19:28 34.559483 -119.111153 85 15519ft 277kts
01-Jan-18 19:29 34.566243 -119.018116 85 15544ft 277kts
01-Jan-18 19:30 34.572974 -118.924669 85 15561ft 278kts
01-Jan-18 19:31 34.579608 -118.831270 85 15576ft 278kts
01-Jan-18 19:32 34.586135 -118.737723 85 15587ft 278kts
01-Jan-18 19:33 34.592687 -118.643820 85 15589ft 279kts
01-Jan-18 19:34 34.599003 -118.549977 84 15598ft 279kts
01-Jan-18 19:35 34.605541 -118.455597 85 15585ft 280kts
01-Jan-18 19:36 34.611896 -118.361434 85 15579ft 280kts
01-Jan-18 19:37 34.618154 -118.267335 85 15581ft 280kts
01-Jan-18 19:38 34.624346 -118.172853 85 15574ft 280kts
01-Jan-18 19:39 34.630452 -118.078608 85 15570ft 280kts
01-Jan-18 19:40 34.639608 -117.984859 80 15568ft 280kts
01-Jan-18 19:41 34.650285 -117.890712 81 15566ft 281kts
01-Jan-18 19:42 34.660547 -117.796619 81 15559ft 281kts
01-Jan-18 19:43 34.670676 -117.702511 81 15555ft 279kts
01-Jan-18 19:44 34.680650 -117.609073 81 15553ft 279kts
01-Jan-18 19:45 34.690541 -117.515626 81 15551ft 279kts
01-Jan-18 19:46 34.700414 -117.421732 81 15546ft 279kts
01-Jan-18 19:47 34.710207 -117.328121 81 15547ft 280kts
01-Jan-18 19:48 34.719963 -117.234083 80 15557ft 279kts
01-Jan-18 19:49 34.729608 -117.140368 80 15564ft 280kts
01-Jan-18 19:50 34.739193 -117.046502 80 15567ft 280kts
01-Jan-18 19:51 34.748717 -116.952273 80 15564ft 280kts
01-Jan-18 19:52 34.758134 -116.858227 80 15557ft 280kts
01-Jan-18 19:53 34.767515 -116.764155 80 15555ft 280kts
01-Jan-18 19:54 34.776834 -116.669826 80 15557ft 280kts
01-Jan-18 19:55 34.786047 -116.575830 80 15564ft 280kts
01-Jan-18 19:56 34.795539 -116.481500 75 15573ft 279kts
01-Jan-18 19:57 34.839384 -116.407654 43 15580ft 272kts
01-Jan-18 19:58 34.890992 -116.340105 43 15570ft 273kts
01-Jan-18 19:59 34.942798 -116.272295 43 15572ft 272kts
01-Jan-18 20:00 34.994364 -116.204659 43 15574ft 272kts
01-Jan-18 20:01 35.044821 -116.138336 43 15068ft 265kts
01-Jan-18 20:02 35.095515 -116.071588 43 14069ft 268kts
01-Jan-18 20:03 35.146046 -116.004903 44 13038ft 268kts
01-Jan-18 20:04 35.196566 -115.938100 44 11937ft 266kts
01-Jan-18 20:05 35.246478 -115.871964 45 10839ft 263kts
01-Jan-18 20:06 35.295970 -115.806281 45 9738ft 262kts
01-Jan-18 20:07 35.345126 -115.740819 46 8638ft 259kts
01-Jan-18 20:08 35.393917 -115.675925 46 7500ft 259kts
01-Jan-18 20:09 35.442454 -115.611134 46 6441ft 252kts
01-Jan-18 20:10 35.488585 -115.549441 47 6501ft 243kts
01-Jan-18 20:11 35.541179 -115.498851 30 6504ft 241kts
01-Jan-18 20:12 35.598827 -115.456010 30 6506ft 241kts
01-Jan-18 20:13 35.656661 -115.412913 30 5809ft 245kts
01-Jan-18 20:14 35.714393 -115.369801 30 4312ft 239kts
01-Jan-18 20:15 35.757293 -115.338898 37 3065ft 118kts
01-Jan-18 20:16 35.770662 -115.328127 300 2837ft 5kts
01-Jan-18 20:17 35.771283 -115.328502 315 2837ft 9kts
01-Jan-18 20:18 35.771538 -115.328927 304 2837ft 0kts
01-Jan-18 20:19 35.771538 -115.328927 304 2837ft 0kts
01-Jan-18 20:20 35.771538 -115.328927 304 2837ft 0kts
01-Jan-18 20:21 35.771538 -115.328927 304 2837ft 0kts
01-Jan-18 20:22 35.771538 -115.328927 304 2837ft 0kts
01-Jan-18 20:23 35.771538 -115.328927 304 2837ft 0kts
01-Jan-18 20:24 35.771538 -115.328927 304 2837ft 0kts
01-Jan-18 20:25 35.771538 -115.328927 304 2837ft 0kts
01-Jan-18 20:26 35.771538 -115.328927 304 2837ft 0kts
01-Jan-18 20:27 35.771538 -115.328927 304 2837ft 0kts
01-Jan-18 20:28 35.771538 -115.328927 304 2837ft 0kts
01-Jan-18 20:29 35.771538 -115.328927 304 2837ft 0kts
01-Jan-18 20:30 35.771538 -115.328927 304 2837ft 0kts
01-Jan-18 20:31 35.771538 -115.328927 304 2837ft 0kts

Navigation Log

Ident Type
Flight plan parsing failed, navigation log unavailable